Terminal Aerodrome Forecast
Issued by NWS Newport/Morehead City, NC

Home | Current Version | Previous Version | Text Only | Print | Product List | Glossary Off
Versions: 1 2 3 4 5 6 7 8 9 10 11 12 13 14 15 16 17 18 19 20 21 22 23 24 25 26

000
FTUS42 KMHX 311134
TAFEWN
TAF
KEWN 311134Z 3112/0112 12005KT P6SM SHRA BKN050 OVC090
     FM312100 15005KT P6SM VCSH BKN024
      TEMPO 0102/0106 BKN010
     FM010600 00000KT 2SM BR OVC004=

USA.gov is the U.S. government's official web portal to all federal, state and local government web resources and services.